Time;durP1;ratioP1;P1;durP2;ratioP2;P2;SDS_P1;SDS_P2;PMS_P1;PMS_P2;Temp;Humidity;BMP_temperature;BMP_pressure;BME280_temperature;BME280_humidity;BME280_pressure;Samples;Min_cycle;Max_cycle;Signal;HPM_P1;HPM_P2
2022/10/26 00:00:47;;;;;;;;;58.50;44.00;;;;;;;;5137890;27;8786;-58
2022/10/26 00:03:32;;;;;;;;;57.00;45.00;;;;;;;;5139458;27;8782;-60
2022/10/26 00:06:17;;;;;;;;;55.75;44.25;;;;;;;;5131350;27;8794;-60
2022/10/26 00:09:02;;;;;;;;;51.75;42.75;;;;;;;;5128863;27;8800;-59
2022/10/26 00:11:46;;;;;;;;;52.75;42.75;;;;;;;;5123603;27;8785;-60
2022/10/26 00:14:31;;;;;;;;;49.50;39.25;;;;;;;;5117535;27;8781;-59
2022/10/26 00:17:15;;;;;;;;;51.50;40.50;;;;;;;;5117242;27;8824;-59
2022/10/26 00:20:01;;;;;;;;;50.00;39.25;;;;;;;;5117482;27;8808;-59
2022/10/26 00:22:45;;;;;;;;;52.50;41.25;;;;;;;;5117833;27;8785;-60
2022/10/26 00:25:29;;;;;;;;;47.00;40.00;;;;;;;;5117806;27;8784;-60
2022/10/26 00:28:14;;;;;;;;;48.50;38.75;;;;;;;;5117299;27;9454;-59
2022/10/26 00:31:02;;;;;;;;;50.00;40.00;;;;;;;;5138015;27;8810;-60
2022/10/26 00:33:50;;;;;;;;;51.50;40.25;;;;;;;;5137778;27;8849;-60
2022/10/26 00:36:35;;;;;;;;;49.00;38.75;;;;;;;;5137959;27;8810;-60
2022/10/26 00:39:19;;;;;;;;;52.25;41.75;;;;;;;;5137814;27;8774;-58
2022/10/26 00:42:04;;;;;;;;;46.75;38.50;;;;;;;;5137538;27;8774;-58
2022/10/26 00:44:48;;;;;;;;;54.25;40.75;;;;;;;;5122454;27;8793;-60
2022/10/26 00:47:32;;;;;;;;;61.25;47.00;;;;;;;;5117470;27;8805;-58
2022/10/26 00:50:21;;;;;;;;;69.25;53.25;;;;;;;;5117192;27;8808;-59
2022/10/26 00:53:07;;;;;;;;;63.75;50.50;;;;;;;;5117314;27;8776;-59
2022/10/26 00:55:53;;;;;;;;;61.50;48.00;;;;;;;;5132771;27;8781;-59
2022/10/26 00:58:37;;;;;;;;;52.00;43.25;;;;;;;;5137676;27;8790;-59
2022/10/26 01:01:22;;;;;;;;;51.00;43.25;;;;;;;;5138193;27;8782;-59
2022/10/26 01:04:06;;;;;;;;;52.00;41.00;;;;;;;;5133411;27;8785;-58
2022/10/26 01:06:51;;;;;;;;;51.50;41.50;;;;;;;;5117467;27;8793;-60
2022/10/26 01:09:36;;;;;;;;;46.25;39.00;;;;;;;;5115887;27;8769;-59
2022/10/26 01:12:20;;;;;;;;;43.75;37.00;;;;;;;;5117097;27;8800;-59
2022/10/26 01:15:05;;;;;;;;;49.25;38.00;;;;;;;;5117141;27;8776;-59
2022/10/26 01:17:52;;;;;;;;;48.25;37.25;;;;;;;;5117125;27;8821;-60
2022/10/26 01:20:40;;;;;;;;;40.25;34.00;;;;;;;;5116896;27;8784;-58
2022/10/26 01:23:26;;;;;;;;;47.25;36.50;;;;;;;;5117413;27;8777;-58
2022/10/26 01:26:29;;;;;;;;;44.75;35.50;;;;;;;;5116804;27;8781;-59
2022/10/26 01:29:26;;;;;;;;;40.50;32.75;;;;;;;;5116452;27;8808;-59
2022/10/26 01:32:13;;;;;;;;;43.25;36.25;;;;;;;;5116961;27;8808;-59
2022/10/26 01:35:09;;;;;;;;;49.00;38.00;;;;;;;;5117346;27;8776;-59
2022/10/26 01:37:56;;;;;;;;;37.75;33.75;;;;;;;;5116925;27;8808;-58
2022/10/26 01:40:44;;;;;;;;;40.50;34.75;;;;;;;;5119089;27;8782;-58
2022/10/26 01:43:29;;;;;;;;;42.75;32.75;;;;;;;;5116888;27;8796;-60
2022/10/26 01:46:15;;;;;;;;;36.75;33.00;;;;;;;;5136011;27;8790;-60
2022/10/26 01:49:03;;;;;;;;;37.00;31.25;;;;;;;;5136563;27;8802;-59
2022/10/26 01:51:48;;;;;;;;;35.25;31.75;;;;;;;;5136959;27;8782;-60
2022/10/26 01:54:34;;;;;;;;;44.50;34.50;;;;;;;;5137774;27;8786;-58
2022/10/26 01:57:20;;;;;;;;;42.00;34.75;;;;;;;;5137041;27;8979;-60
2022/10/26 02:00:09;;;;;;;;;43.75;35.00;;;;;;;;5136879;27;9550;-60
2022/10/26 02:03:00;;;;;;;;;38.50;31.00;;;;;;;;5130701;27;9516;-59
2022/10/26 02:05:51;;;;;;;;;46.00;35.50;;;;;;;;5116782;27;8765;-60
2022/10/26 02:08:35;;;;;;;;;44.75;35.50;;;;;;;;5116453;27;8804;-59
2022/10/26 02:11:19;;;;;;;;;38.00;31.00;;;;;;;;5116281;27;8793;-59
2022/10/26 02:14:12;;;;;;;;;40.50;32.25;;;;;;;;5116695;27;8792;-60
2022/10/26 02:17:07;;;;;;;;;39.25;34.75;;;;;;;;5116575;27;8852;-59
2022/10/26 02:19:51;;;;;;;;;36.00;31.50;;;;;;;;5116343;27;8808;-59
2022/10/26 02:22:38;;;;;;;;;37.75;31.50;;;;;;;;5116264;27;8832;-59
2022/10/26 02:25:25;;;;;;;;;38.00;32.00;;;;;;;;5134246;27;8774;-60
2022/10/26 02:28:12;;;;;;;;;40.50;34.75;;;;;;;;5140789;27;8936;-59
2022/10/26 02:30:57;;;;;;;;;43.50;34.00;;;;;;;;5140783;27;8794;-59
2022/10/26 02:33:43;;;;;;;;;40.25;33.00;;;;;;;;5141033;27;8787;-59
2022/10/26 02:36:29;;;;;;;;;42.50;35.00;;;;;;;;5139497;27;8822;-60
2022/10/26 02:39:15;;;;;;;;;40.75;31.75;;;;;;;;5141046;27;8782;-59
2022/10/26 02:42:02;;;;;;;;;36.50;31.50;;;;;;;;5140546;27;8794;-59
2022/10/26 02:44:49;;;;;;;;;41.25;35.00;;;;;;;;5120151;27;8784;-60
2022/10/26 02:47:33;;;;;;;;;42.25;35.25;;;;;;;;5120077;27;8825;-60
2022/10/26 02:50:20;;;;;;;;;47.00;36.00;;;;;;;;5133532;27;8778;-59
2022/10/26 02:53:31;;;;;;;;;38.75;32.50;;;;;;;;5140156;27;9569;-60
2022/10/26 02:56:42;;;;;;;;;41.50;35.75;;;;;;;;5139769;27;8821;-59
2022/10/26 02:59:29;;;;;;;;;34.50;31.75;;;;;;;;5140577;27;8798;-59
2022/10/26 03:02:18;;;;;;;;;41.00;32.00;;;;;;;;5139813;27;8786;-59
2022/10/26 03:05:23;;;;;;;;;40.00;35.00;;;;;;;;5140475;27;8794;-58
2022/10/26 03:08:07;;;;;;;;;30.25;29.00;;;;;;;;5140253;27;8791;-59
2022/10/26 03:10:51;;;;;;;;;35.25;32.25;;;;;;;;5140506;27;8794;-59
2022/10/26 03:13:35;;;;;;;;;42.50;34.25;;;;;;;;5139652;27;8775;-59
2022/10/26 03:16:19;;;;;;;;;43.75;34.75;;;;;;;;5139932;27;8813;-60
2022/10/26 03:19:04;;;;;;;;;37.25;33.25;;;;;;;;5140412;27;8774;-59
2022/10/26 03:21:48;;;;;;;;;39.50;34.25;;;;;;;;5139896;27;8806;-59
2022/10/26 03:24:33;;;;;;;;;42.00;34.75;;;;;;;;5139732;27;8790;-58
2022/10/26 03:27:17;;;;;;;;;37.00;31.75;;;;;;;;5139897;27;8794;-60
2022/10/26 03:30:01;;;;;;;;;41.25;33.00;;;;;;;;5139697;27;8759;-60
2022/10/26 03:32:46;;;;;;;;;36.50;30.00;;;;;;;;5140021;27;8809;-59
2022/10/26 03:35:30;;;;;;;;;44.75;34.00;;;;;;;;5139523;27;8798;-59
2022/10/26 03:38:15;;;;;;;;;39.00;33.75;;;;;;;;5139625;27;8810;-60
2022/10/26 03:40:59;;;;;;;;;40.75;31.75;;;;;;;;5139388;27;8781;-60
2022/10/26 03:43:43;;;;;;;;;30.50;29.00;;;;;;;;5139137;27;8774;-59
2022/10/26 03:46:28;;;;;;;;;36.00;31.50;;;;;;;;5139535;27;8809;-59
2022/10/26 03:49:12;;;;;;;;;33.25;30.00;;;;;;;;5134738;27;8759;-59
2022/10/26 03:51:57;;;;;;;;;34.25;30.50;;;;;;;;5139191;27;8766;-60
2022/10/26 03:54:41;;;;;;;;;34.75;30.00;;;;;;;;5139081;27;8778;-59
2022/10/26 03:57:25;;;;;;;;;33.00;30.00;;;;;;;;5129173;27;8812;-60
2022/10/26 04:00:14;;;;;;;;;41.50;34.00;;;;;;;;5118578;27;8784;-59
2022/10/26 04:02:59;;;;;;;;;36.00;30.75;;;;;;;;5117685;27;9290;-60
2022/10/26 04:05:43;;;;;;;;;37.25;30.00;;;;;;;;5118270;27;8784;-60
2022/10/26 04:08:27;;;;;;;;;38.50;32.25;;;;;;;;5118583;27;8777;-60
2022/10/26 04:11:12;;;;;;;;;40.75;35.75;;;;;;;;5118506;27;8781;-60
2022/10/26 04:13:59;;;;;;;;;35.00;31.25;;;;;;;;5118391;27;8801;-60
2022/10/26 04:16:43;;;;;;;;;42.25;34.00;;;;;;;;5117752;27;8816;-60
2022/10/26 04:19:28;;;;;;;;;36.00;31.00;;;;;;;;5118283;27;9475;-61
2022/10/26 04:22:12;;;;;;;;;40.75;32.50;;;;;;;;5118006;27;8777;-60
2022/10/26 04:24:57;;;;;;;;;29.25;28.50;;;;;;;;5117497;27;8780;-60
2022/10/26 04:27:41;;;;;;;;;36.00;31.50;;;;;;;;5118278;27;8772;-59
2022/10/26 04:30:25;;;;;;;;;38.00;29.00;;;;;;;;5117956;27;8800;-60
2022/10/26 04:33:10;;;;;;;;;34.25;31.50;;;;;;;;5117608;27;8781;-59
2022/10/26 04:36:00;;;;;;;;;33.00;29.25;;;;;;;;5117803;27;8780;-59
2022/10/26 04:38:44;;;;;;;;;34.25;31.00;;;;;;;;5118168;27;8777;-60
2022/10/26 04:41:29;;;;;;;;;29.25;29.00;;;;;;;;5117834;27;8773;-60
2022/10/26 04:44:13;;;;;;;;;31.75;25.25;;;;;;;;5117523;27;8881;-59
2022/10/26 04:46:58;;;;;;;;;36.75;28.00;;;;;;;;5116757;27;8784;-59
2022/10/26 04:49:42;;;;;;;;;33.25;30.00;;;;;;;;5117590;27;8772;-60
2022/10/26 04:52:26;;;;;;;;;29.75;27.50;;;;;;;;5117673;27;8777;-59
2022/10/26 04:55:11;;;;;;;;;39.25;32.25;;;;;;;;5117781;27;8768;-60
2022/10/26 04:57:55;;;;;;;;;36.00;32.00;;;;;;;;5116756;27;8792;-59
2022/10/26 05:00:39;;;;;;;;;41.25;33.75;;;;;;;;5118236;27;8814;-60
2022/10/26 05:03:24;;;;;;;;;39.00;33.00;;;;;;;;5128465;27;8784;-59
2022/10/26 05:06:08;;;;;;;;;38.50;32.75;;;;;;;;5116891;27;9578;-60
2022/10/26 05:08:53;;;;;;;;;31.00;29.75;;;;;;;;5117417;27;8796;-59
2022/10/26 05:11:37;;;;;;;;;32.75;31.00;;;;;;;;5117371;27;9535;-60
2022/10/26 05:14:21;;;;;;;;;38.50;33.25;;;;;;;;5117258;27;8923;-60
2022/10/26 05:17:06;;;;;;;;;42.25;31.00;;;;;;;;5132088;27;8813;-60
2022/10/26 05:20:04;;;;;;;;;37.25;32.25;;;;;;;;5132550;27;8773;-59
2022/10/26 05:22:52;;;;;;;;;40.00;33.50;;;;;;;;5137067;27;8908;-59
2022/10/26 05:25:36;;;;;;;;;38.75;33.00;;;;;;;;5137890;27;9620;-60
2022/10/26 05:28:21;;;;;;;;;43.25;35.25;;;;;;;;5126300;27;8801;-60
2022/10/26 05:31:05;;;;;;;;;44.00;35.50;;;;;;;;5135752;27;8790;-60
2022/10/26 05:33:50;;;;;;;;;35.25;30.75;;;;;;;;5137159;27;8778;-60
2022/10/26 05:36:34;;;;;;;;;45.75;36.25;;;;;;;;5137534;27;8806;-60
2022/10/26 05:39:19;;;;;;;;;45.25;37.75;;;;;;;;5136897;27;8790;-59
2022/10/26 05:42:03;;;;;;;;;47.00;37.75;;;;;;;;5137343;27;8794;-60
2022/10/26 05:44:47;;;;;;;;;46.50;36.00;;;;;;;;5136846;27;8786;-60
2022/10/26 05:47:32;;;;;;;;;42.00;33.25;;;;;;;;5136591;27;8826;-60
2022/10/26 05:50:16;;;;;;;;;45.00;37.00;;;;;;;;5137111;27;8801;-60
2022/10/26 05:53:01;;;;;;;;;51.00;41.50;;;;;;;;5137027;27;8782;-59
2022/10/26 05:55:45;;;;;;;;;58.50;45.25;;;;;;;;5137283;27;8920;-60
2022/10/26 05:58:30;;;;;;;;;60.50;46.75;;;;;;;;5138144;27;8813;-60
2022/10/26 06:01:14;;;;;;;;;58.50;46.25;;;;;;;;5140465;27;8806;-59
2022/10/26 06:04:09;;;;;;;;;59.25;47.00;;;;;;;;5134837;27;8795;-60
2022/10/26 06:06:53;;;;;;;;;56.50;46.25;;;;;;;;5135841;27;8805;-60
2022/10/26 06:09:38;;;;;;;;;57.50;44.75;;;;;;;;5119816;27;8777;-59
2022/10/26 06:12:24;;;;;;;;;68.75;54.00;;;;;;;;5120672;27;8780;-59
2022/10/26 06:15:12;;;;;;;;;64.50;50.00;;;;;;;;5120497;27;8796;-60
2022/10/26 06:18:10;;;;;;;;;64.50;51.50;;;;;;;;5120484;27;8859;-60
2022/10/26 06:21:19;;;;;;;;;62.00;49.00;;;;;;;;5136212;27;8782;-60
2022/10/26 06:24:08;;;;;;;;;65.00;50.75;;;;;;;;5120558;27;8796;-60
2022/10/26 06:27:00;;;;;;;;;62.75;50.75;;;;;;;;5120102;27;8808;-60
2022/10/26 06:29:48;;;;;;;;;63.00;50.75;;;;;;;;5119590;27;8911;-59
2022/10/26 06:32:33;;;;;;;;;63.00;49.00;;;;;;;;5120131;27;8805;-60
2022/10/26 06:35:26;;;;;;;;;60.75;48.25;;;;;;;;5119803;27;9559;-60
2022/10/26 06:38:13;;;;;;;;;61.50;45.75;;;;;;;;5119470;27;8805;-59
2022/10/26 06:40:58;;;;;;;;;62.00;49.00;;;;;;;;5119302;27;8792;-59
2022/10/26 06:43:42;;;;;;;;;56.75;45.25;;;;;;;;5135492;27;8828;-59
2022/10/26 06:46:45;;;;;;;;;55.50;45.00;;;;;;;;5139948;27;8782;-62
2022/10/26 06:49:31;;;;;;;;;55.75;45.25;;;;;;;;5124370;27;8778;-61
2022/10/26 06:52:19;;;;;;;;;58.25;45.00;;;;;;;;5137803;27;8814;-58
2022/10/26 06:55:04;;;;;;;;;57.25;46.25;;;;;;;;5140431;27;8787;-59
2022/10/26 06:57:48;;;;;;;;;57.50;47.25;;;;;;;;5140517;27;8810;-47
2022/10/26 07:00:33;;;;;;;;;55.25;45.50;;;;;;;;5118544;27;8788;-49
2022/10/26 07:03:17;;;;;;;;;60.75;48.75;;;;;;;;5135997;27;8784;-52
2022/10/26 07:06:01;;;;;;;;;56.50;45.00;;;;;;;;5128945;27;8804;-54
2022/10/26 07:08:46;;;;;;;;;57.50;45.75;;;;;;;;5121908;27;8785;-42
2022/10/26 07:11:30;;;;;;;;;56.50;44.00;;;;;;;;5123293;27;8804;-49
2022/10/26 07:14:15;;;;;;;;;59.50;48.00;;;;;;;;5137287;27;8789;-51
2022/10/26 07:16:59;;;;;;;;;60.50;47.50;;;;;;;;5126543;27;8813;-47
2022/10/26 07:19:44;;;;;;;;;55.50;44.75;;;;;;;;5120189;27;8785;-54
2022/10/26 07:22:28;;;;;;;;;55.50;44.75;;;;;;;;5122714;27;8788;-57
2022/10/26 07:25:13;;;;;;;;;57.50;45.75;;;;;;;;5132039;27;9644;-53
2022/10/26 07:27:58;;;;;;;;;58.25;46.00;;;;;;;;5133605;27;8810;-52
2022/10/26 07:30:42;;;;;;;;;53.25;43.00;;;;;;;;5119706;27;8812;-54
2022/10/26 07:33:27;;;;;;;;;54.00;42.25;;;;;;;;5118286;27;8776;-56
2022/10/26 07:36:11;;;;;;;;;46.75;37.00;;;;;;;;5117956;27;8800;-55
2022/10/26 07:38:55;;;;;;;;;48.25;39.00;;;;;;;;5120844;27;8883;-55
2022/10/26 07:41:40;;;;;;;;;50.50;39.25;;;;;;;;5118347;27;9524;-57
2022/10/26 07:44:24;;;;;;;;;46.25;38.50;;;;;;;;5136172;27;8774;-53
2022/10/26 07:47:09;;;;;;;;;42.75;34.00;;;;;;;;5128736;27;8814;-52
2022/10/26 07:49:53;;;;;;;;;43.75;36.75;;;;;;;;5126737;27;8786;-55
2022/10/26 07:52:40;;;;;;;;;40.25;33.25;;;;;;;;5120158;27;8788;-55
2022/10/26 07:55:24;;;;;;;;;29.75;29.00;;;;;;;;5118260;27;8785;-55
2022/10/26 07:58:08;;;;;;;;;31.00;27.00;;;;;;;;5118236;27;8824;-55
2022/10/26 08:00:53;;;;;;;;;36.00;32.00;;;;;;;;5130479;27;8782;-56
2022/10/26 08:03:38;;;;;;;;;38.25;32.50;;;;;;;;5138921;27;8802;-53
2022/10/26 08:06:22;;;;;;;;;30.50;29.00;;;;;;;;5138771;27;8762;-55
2022/10/26 08:09:06;;;;;;;;;34.25;29.50;;;;;;;;5123991;27;8776;-59
2022/10/26 08:11:50;;;;;;;;;29.50;27.50;;;;;;;;5117819;27;8781;-58
2022/10/26 08:14:35;;;;;;;;;34.50;30.50;;;;;;;;5118198;27;8784;-57
2022/10/26 08:17:20;;;;;;;;;36.00;31.50;;;;;;;;5134633;27;8798;-60
2022/10/26 08:20:05;;;;;;;;;39.75;31.00;;;;;;;;5138424;27;8786;-60
2022/10/26 08:22:49;;;;;;;;;30.00;28.00;;;;;;;;5137820;27;8778;-60
2022/10/26 08:25:34;;;;;;;;;22.00;21.00;;;;;;;;5138829;27;8778;-48
2022/10/26 08:28:18;;;;;;;;;33.50;27.50;;;;;;;;5137868;27;8782;-51
2022/10/26 08:31:02;;;;;;;;;8.50;8.50;;;;;;;;5137909;27;9676;-59
2022/10/26 08:33:46;;;;;;;;;9.25;8.00;;;;;;;;5123389;27;8776;-58
2022/10/26 08:36:30;;;;;;;;;14.25;13.50;;;;;;;;5134015;27;8817;-58
2022/10/26 08:39:15;;;;;;;;;13.25;11.25;;;;;;;;5135863;27;9302;-58
2022/10/26 08:42:21;;;;;;;;;14.50;13.75;;;;;;;;5124193;27;8809;-60
2022/10/26 08:45:09;;;;;;;;;14.50;13.00;;;;;;;;5128892;27;8782;-61
2022/10/26 08:47:58;;;;;;;;;14.25;12.25;;;;;;;;5121625;27;8817;-59
2022/10/26 08:50:48;;;;;;;;;11.25;9.00;;;;;;;;5117952;27;8768;-55
2022/10/26 08:53:42;;;;;;;;;10.25;10.00;;;;;;;;5117170;27;8785;-62
2022/10/26 08:56:28;;;;;;;;;13.25;10.25;;;;;;;;5117087;27;8793;-58
2022/10/26 08:59:24;;;;;;;;;11.50;8.50;;;;;;;;5122021;27;9559;-54
2022/10/26 09:02:12;;;;;;;;;12.75;12.25;;;;;;;;5137201;27;8790;-57
2022/10/26 09:04:58;;;;;;;;;21.25;17.25;;;;;;;;5137660;27;8797;-58
2022/10/26 09:07:57;;;;;;;;;11.75;8.75;;;;;;;;5129501;27;8808;-58
2022/10/26 09:11:14;;;;;;;;;8.25;7.00;;;;;;;;5132183;27;8802;-55
2022/10/26 09:14:03;;;;;;;;;16.50;15.00;;;;;;;;5105661;27;8796;-58
2022/10/26 09:16:50;;;;;;;;;24.00;22.75;;;;;;;;5115663;27;9588;-56
2022/10/26 09:19:43;;;;;;;;;8.00;6.25;;;;;;;;5116386;27;9687;-60
2022/10/26 09:22:43;;;;;;;;;22.25;21.00;;;;;;;;5115961;27;8780;-60
2022/10/26 09:25:32;;;;;;;;;24.75;23.25;;;;;;;;5118436;27;8797;-60
2022/10/26 09:28:17;;;;;;;;;19.75;16.50;;;;;;;;5116158;27;8800;-60
2022/10/26 09:31:03;;;;;;;;;22.50;21.75;;;;;;;;5122450;27;8785;-60
2022/10/26 09:33:47;;;;;;;;;24.00;21.50;;;;;;;;5115852;27;8780;-60
2022/10/26 09:36:31;;;;;;;;;31.25;25.50;;;;;;;;5115647;27;8812;-59
2022/10/26 09:39:22;;;;;;;;;23.50;21.50;;;;;;;;5115905;27;8781;-59
2022/10/26 09:42:15;;;;;;;;;6.25;4.75;;;;;;;;5128288;27;8830;-59
2022/10/26 09:45:25;;;;;;;;;23.25;18.00;;;;;;;;5125264;27;8793;-57
2022/10/26 09:48:20;;;;;;;;;20.00;14.50;;;;;;;;5127219;27;8812;-59
2022/10/26 09:51:04;;;;;;;;;16.25;16.25;;;;;;;;5116622;27;8769;-60
2022/10/26 09:53:49;;;;;;;;;22.00;18.75;;;;;;;;5116559;27;8777;-60
2022/10/26 09:56:36;;;;;;;;;8.50;8.50;;;;;;;;5134015;27;8794;-60
2022/10/26 09:59:21;;;;;;;;;11.25;9.75;;;;;;;;5119560;27;8773;-58
2022/10/26 10:02:25;;;;;;;;;14.00;12.50;;;;;;;;5117162;27;8773;-59
2022/10/26 10:05:24;;;;;;;;;20.75;15.50;;;;;;;;5120789;27;9568;-59
2022/10/26 10:08:17;;;;;;;;;20.50;19.50;;;;;;;;5124722;27;8833;-60
2022/10/26 10:11:07;;;;;;;;;15.75;11.00;;;;;;;;5116396;27;8781;-59
2022/10/26 10:13:51;;;;;;;;;20.00;19.00;;;;;;;;5116981;27;8911;-59
2022/10/26 10:16:35;;;;;;;;;28.25;26.00;;;;;;;;5125918;27;9653;-59
2022/10/26 10:19:22;;;;;;;;;35.75;31.50;;;;;;;;5125262;27;8762;-58
2022/10/26 10:22:21;;;;;;;;;27.00;25.00;;;;;;;;5114756;27;9730;-59
2022/10/26 10:25:21;;;;;;;;;33.25;28.50;;;;;;;;5116210;27;8780;-59
2022/10/26 10:28:21;;;;;;;;;27.50;24.00;;;;;;;;5115644;27;8781;-60
2022/10/26 10:31:18;;;;;;;;;23.25;21.25;;;;;;;;5116395;27;8824;-60
2022/10/26 10:34:14;;;;;;;;;23.50;21.75;;;;;;;;5119808;27;8839;-60
2022/10/26 10:36:59;;;;;;;;;21.25;20.00;;;;;;;;5128875;27;8798;-59
2022/10/26 10:39:43;;;;;;;;;13.50;12.75;;;;;;;;5126576;27;8785;-61
2022/10/26 10:42:32;;;;;;;;;18.00;15.75;;;;;;;;5115871;27;8784;-61
2022/10/26 10:45:19;;;;;;;;;15.75;14.00;;;;;;;;5116479;27;8808;-60
2022/10/26 10:48:12;;;;;;;;;17.75;13.50;;;;;;;;5118719;27;8816;-63
2022/10/26 10:50:58;;;;;;;;;11.75;11.50;;;;;;;;5126442;27;9579;-61
2022/10/26 10:53:44;;;;;;;;;14.75;13.75;;;;;;;;5126994;27;8911;-60
2022/10/26 10:56:31;;;;;;;;;24.50;17.25;;;;;;;;5129112;27;8777;-61
2022/10/26 10:59:25;;;;;;;;;24.75;24.25;;;;;;;;5119343;27;8797;-60
2022/10/26 11:02:21;;;;;;;;;19.00;17.00;;;;;;;;5126001;27;8781;-61
2022/10/26 11:05:05;;;;;;;;;19.50;16.50;;;;;;;;5134553;27;8790;-61
2022/10/26 11:07:53;;;;;;;;;18.75;16.75;;;;;;;;5139788;27;8790;-61
2022/10/26 11:10:42;;;;;;;;;19.75;18.50;;;;;;;;5130338;27;8792;-59
2022/10/26 11:13:32;;;;;;;;;23.75;22.25;;;;;;;;5118411;27;8792;-61
2022/10/26 11:16:29;;;;;;;;;19.75;18.50;;;;;;;;5134793;27;9727;-60
2022/10/26 11:19:19;;;;;;;;;22.25;21.75;;;;;;;;5139816;27;8778;-60
2022/10/26 11:22:05;;;;;;;;;21.75;16.00;;;;;;;;5139937;27;8782;-60
2022/10/26 11:24:53;;;;;;;;;19.25;18.00;;;;;;;;5135080;27;8806;-59
2022/10/26 11:27:52;;;;;;;;;20.75;18.75;;;;;;;;5137752;27;9717;-59
2022/10/26 11:30:42;;;;;;;;;22.50;21.25;;;;;;;;5121329;27;8780;-58
2022/10/26 11:33:46;;;;;;;;;25.00;24.00;;;;;;;;5123886;27;8858;-59
2022/10/26 11:36:33;;;;;;;;;17.50;16.75;;;;;;;;5138000;27;8948;-59
2022/10/26 11:39:41;;;;;;;;;19.00;17.25;;;;;;;;5127972;27;8804;-51
2022/10/26 11:42:36;;;;;;;;;29.25;21.75;;;;;;;;5126979;27;8900;-43
2022/10/26 11:45:32;;;;;;;;;21.75;18.75;;;;;;;;5128305;27;8789;-41
2022/10/26 11:48:21;;;;;;;;;21.75;18.50;;;;;;;;5124076;27;8805;-44
2022/10/26 11:51:12;;;;;;;;;20.75;19.50;;;;;;;;5116975;27;8800;-42
2022/10/26 11:54:00;;;;;;;;;19.50;17.25;;;;;;;;5123441;27;8800;-42
2022/10/26 11:56:47;;;;;;;;;18.25;18.25;;;;;;;;5118414;27;8817;-43
2022/10/26 11:59:38;;;;;;;;;23.00;19.00;;;;;;;;5128464;27;8798;-42
2022/10/26 12:02:23;;;;;;;;;16.00;15.75;;;;;;;;5116310;27;8801;-42
2022/10/26 12:05:16;;;;;;;;;16.25;14.50;;;;;;;;5121432;27;10013;-43
2022/10/26 12:08:04;;;;;;;;;15.25;14.50;;;;;;;;5119053;27;8784;-43
2022/10/26 12:10:54;;;;;;;;;16.00;14.75;;;;;;;;5134630;27;8802;-43
2022/10/26 12:13:46;;;;;;;;;17.75;16.25;;;;;;;;5117933;27;8788;-43
2022/10/26 12:16:45;;;;;;;;;20.50;17.50;;;;;;;;5130644;27;8777;-43
2022/10/26 12:19:49;;;;;;;;;15.00;14.75;;;;;;;;5129717;27;9583;-45
2022/10/26 12:22:36;;;;;;;;;15.75;12.75;;;;;;;;5138859;27;9723;-43
2022/10/26 12:25:21;;;;;;;;;18.25;14.25;;;;;;;;5127639;27;8784;-43
2022/10/26 12:28:25;;;;;;;;;15.00;13.75;;;;;;;;5117067;27;8776;-42
2022/10/26 12:31:38;;;;;;;;;12.00;11.75;;;;;;;;5117319;27;8776;-43
2022/10/26 12:34:43;;;;;;;;;14.50;14.00;;;;;;;;5131285;27;8790;-42
2022/10/26 12:37:32;;;;;;;;;18.50;15.50;;;;;;;;5130247;27;8801;-45
2022/10/26 12:40:31;;;;;;;;;0.00;0.00;;;;;;;;5117787;27;8768;-43
2022/10/26 12:43:16;;;;;;;;;17.25;17.00;;;;;;;;5118461;27;8780;-42
2022/10/26 12:46:12;;;;;;;;;18.00;18.00;;;;;;;;5116861;27;8777;-43
2022/10/26 12:48:58;;;;;;;;;14.75;11.75;;;;;;;;5117970;27;8804;-44
2022/10/26 12:51:43;;;;;;;;;18.25;16.75;;;;;;;;5117311;27;8773;-42
2022/10/26 12:54:34;;;;;;;;;16.25;14.50;;;;;;;;5117830;27;8765;-44
2022/10/26 12:57:37;;;;;;;;;19.00;16.00;;;;;;;;5117499;27;8804;-41
2022/10/26 13:00:23;;;;;;;;;17.50;12.75;;;;;;;;5117543;27;8789;-46
2022/10/26 13:03:16;;;;;;;;;13.25;13.25;;;;;;;;5117339;27;8769;-45
2022/10/26 13:06:16;;;;;;;;;12.50;12.50;;;;;;;;5121398;27;8778;-45
2022/10/26 13:09:06;;;;;;;;;15.25;14.00;;;;;;;;5136581;27;8770;-45
2022/10/26 13:11:53;;;;;;;;;9.00;8.25;;;;;;;;5125604;27;8804;-42
2022/10/26 13:14:50;;;;;;;;;12.00;11.25;;;;;;;;5116841;27;8765;-43
2022/10/26 13:17:34;;;;;;;;;12.00;11.00;;;;;;;;5116312;27;9599;-42
2022/10/26 13:20:19;;;;;;;;;10.00;10.00;;;;;;;;5117194;27;8769;-42
2022/10/26 13:23:14;;;;;;;;;8.50;8.50;;;;;;;;5115483;27;8773;-40
2022/10/26 13:26:12;;;;;;;;;9.50;9.50;;;;;;;;5134815;27;8778;-43
2022/10/26 13:29:01;;;;;;;;;11.50;8.50;;;;;;;;5132807;27;8794;-44
2022/10/26 13:31:53;;;;;;;;;10.75;8.00;;;;;;;;5124554;27;8773;-43
2022/10/26 13:34:39;;;;;;;;;8.00;6.75;;;;;;;;5136256;27;8758;-44
2022/10/26 13:37:26;;;;;;;;;8.00;6.25;;;;;;;;5137513;27;8774;-43
2022/10/26 13:40:13;;;;;;;;;12.00;9.00;;;;;;;;5137607;27;8754;-41
2022/10/26 13:42:59;;;;;;;;;8.50;7.00;;;;;;;;5130314;27;8792;-42
2022/10/26 13:45:48;;;;;;;;;5.75;5.75;;;;;;;;5125992;27;8781;-44
2022/10/26 13:48:36;;;;;;;;;6.50;6.50;;;;;;;;5116274;27;8820;-42
2022/10/26 13:51:22;;;;;;;;;4.50;4.25;;;;;;;;5118418;27;9529;-42
2022/10/26 13:54:25;;;;;;;;;7.75;6.25;;;;;;;;5124462;27;9659;-43
2022/10/26 13:57:19;;;;;;;;;5.50;5.50;;;;;;;;5129689;27;8800;-42
2022/10/26 14:00:20;;;;;;;;;8.25;6.25;;;;;;;;5121347;27;8782;-43
2022/10/26 14:03:19;;;;;;;;;10.25;9.00;;;;;;;;5133112;27;8770;-42
2022/10/26 14:06:16;;;;;;;;;12.00;12.00;;;;;;;;5137180;27;8790;-43
2022/10/26 14:09:20;;;;;;;;;10.75;7.75;;;;;;;;5132876;27;8782;-43
2022/10/26 14:12:04;;;;;;;;;9.50;7.00;;;;;;;;5120192;27;8777;-43
2022/10/26 14:14:50;;;;;;;;;3.75;3.50;;;;;;;;5126826;27;8769;-46
2022/10/26 14:17:34;;;;;;;;;6.00;6.00;;;;;;;;5134786;27;8782;-43
2022/10/26 14:20:19;;;;;;;;;7.00;7.00;;;;;;;;5134399;27;8774;-42
2022/10/26 14:23:03;;;;;;;;;7.50;7.00;;;;;;;;5120531;27;8764;-43
2022/10/26 14:25:52;;;;;;;;;7.25;7.25;;;;;;;;5129419;27;8774;-45
2022/10/26 14:28:44;;;;;;;;;6.75;5.50;;;;;;;;5140742;27;8770;-43
2022/10/26 14:31:30;;;;;;;;;8.00;8.00;;;;;;;;5130262;27;8770;-42
2022/10/26 14:34:15;;;;;;;;;2.75;2.75;;;;;;;;5141028;27;8770;-42
2022/10/26 14:37:03;;;;;;;;;8.00;7.75;;;;;;;;5121761;27;8804;-45
2022/10/26 14:39:47;;;;;;;;;8.25;7.50;;;;;;;;5124024;27;8769;-43
2022/10/26 14:42:33;;;;;;;;;8.25;5.25;;;;;;;;5118906;27;8774;-45
2022/10/26 14:45:37;;;;;;;;;4.50;4.50;;;;;;;;5119661;27;8788;-43
2022/10/26 14:48:30;;;;;;;;;5.75;5.75;;;;;;;;5133928;27;8813;-42
2022/10/26 14:51:18;;;;;;;;;8.75;6.25;;;;;;;;5128839;27;8777;-42
2022/10/26 14:54:03;;;;;;;;;11.00;8.50;;;;;;;;5134643;27;8762;-44
2022/10/26 14:56:47;;;;;;;;;12.75;8.75;;;;;;;;5130218;27;8810;-43
2022/10/26 14:59:32;;;;;;;;;12.75;9.75;;;;;;;;5125092;27;9711;-43
2022/10/26 15:02:19;;;;;;;;;11.25;10.25;;;;;;;;5136143;27;8770;-46
2022/10/26 15:05:24;;;;;;;;;13.25;12.75;;;;;;;;5133593;27;8804;-43
2022/10/26 15:08:27;;;;;;;;;8.50;6.50;;;;;;;;5133130;27;8778;-44
2022/10/26 15:11:11;;;;;;;;;7.75;6.50;;;;;;;;5137711;27;8782;-42
2022/10/26 15:13:56;;;;;;;;;6.50;5.00;;;;;;;;5128003;27;8774;-46
2022/10/26 15:16:49;;;;;;;;;7.25;7.00;;;;;;;;5126628;27;9566;-43
2022/10/26 15:19:34;;;;;;;;;6.75;5.50;;;;;;;;5124396;27;8773;-44
2022/10/26 15:22:25;;;;;;;;;12.75;8.75;;;;;;;;5138148;27;8782;-48
2022/10/26 15:25:16;;;;;;;;;16.00;14.00;;;;;;;;5139722;27;9600;-44
2022/10/26 15:28:10;;;;;;;;;11.75;9.00;;;;;;;;5139500;27;8798;-48
2022/10/26 15:31:18;;;;;;;;;8.75;8.00;;;;;;;;5136178;27;8766;-45
2022/10/26 15:34:02;;;;;;;;;11.00;9.50;;;;;;;;5129636;27;8801;-49
2022/10/26 15:36:46;;;;;;;;;24.25;20.00;;;;;;;;5120633;27;8852;-48
2022/10/26 15:39:31;;;;;;;;;9.00;7.00;;;;;;;;5119845;27;8780;-44
2022/10/26 15:42:15;;;;;;;;;9.75;6.50;;;;;;;;5119026;27;8824;-47
2022/10/26 15:45:00;;;;;;;;;8.50;7.00;;;;;;;;5121253;27;8766;-46
2022/10/26 15:47:45;;;;;;;;;6.00;6.00;;;;;;;;5118087;27;8801;-43
2022/10/26 15:50:30;;;;;;;;;7.50;5.25;;;;;;;;5117652;27;9142;-47
2022/10/26 15:53:26;;;;;;;;;6.25;4.75;;;;;;;;5118819;27;8777;-43
2022/10/26 15:56:13;;;;;;;;;7.75;6.00;;;;;;;;5124381;27;8769;-45
2022/10/26 15:58:58;;;;;;;;;6.50;5.50;;;;;;;;5121517;27;8801;-46
2022/10/26 16:01:42;;;;;;;;;4.75;4.75;;;;;;;;5118203;27;8804;-44
2022/10/26 16:04:26;;;;;;;;;9.75;5.00;;;;;;;;5120636;27;8770;-42
2022/10/26 16:07:14;;;;;;;;;7.25;6.50;;;;;;;;5126553;27;8778;-43
2022/10/26 16:09:59;;;;;;;;;9.25;6.75;;;;;;;;5136717;27;8762;-44
2022/10/26 16:12:43;;;;;;;;;10.50;8.25;;;;;;;;5119549;27;8847;-44
2022/10/26 16:15:28;;;;;;;;;4.50;4.50;;;;;;;;5118667;27;8757;-48
2022/10/26 16:18:13;;;;;;;;;10.25;7.75;;;;;;;;5123784;27;8806;-43
2022/10/26 16:20:57;;;;;;;;;7.50;6.75;;;;;;;;5136541;27;9541;-46
2022/10/26 16:23:42;;;;;;;;;7.50;5.75;;;;;;;;5118101;27;8764;-49
2022/10/26 16:26:26;;;;;;;;;15.50;9.00;;;;;;;;5118029;27;8777;-44
2022/10/26 16:29:10;;;;;;;;;6.50;6.50;;;;;;;;5117228;27;8796;-46
2022/10/26 16:31:55;;;;;;;;;7.00;6.50;;;;;;;;5122555;27;8797;-47
2022/10/26 16:34:39;;;;;;;;;16.25;9.00;;;;;;;;5124609;27;8785;-47
2022/10/26 16:37:55;;;;;;;;;7.00;5.00;;;;;;;;5117486;27;8792;-49
2022/10/26 16:40:41;;;;;;;;;6.00;6.00;;;;;;;;5127619;27;8788;-47